createdAt,value
2019-02-27T00:02:08.515Z,100.90
2019-02-27T00:04:37.891Z,100.23
2019-02-27T00:07:07.331Z,89.23
2019-02-27T00:09:36.722Z,91.10
2019-02-27T00:12:05.960Z,91.20
2019-02-27T00:14:35.329Z,89.80
2019-02-27T00:17:04.839Z,77.93
2019-02-27T00:19:34.243Z,83.03
2019-02-27T00:22:04.539Z,84.37
2019-02-27T00:24:33.914Z,74.43
2019-02-27T00:27:03.181Z,72.63
2019-02-27T00:29:32.791Z,76.87
2019-02-27T00:32:04.991Z,72.77
2019-02-27T00:34:34.383Z,68.30
2019-02-27T00:37:03.712Z,76.80
2019-02-27T00:39:33.155Z,72.60
2019-02-27T00:42:02.626Z,75.23
2019-02-27T00:44:34.714Z,71.10
2019-02-27T00:47:03.223Z,74.03
2019-02-27T00:49:33.058Z,70.00
2019-02-27T00:52:02.575Z,73.40
2019-02-27T00:54:32.165Z,78.17
2019-02-27T00:57:01.532Z,74.30
2019-02-27T00:59:32.925Z,74.83
2019-02-27T01:02:01.884Z,71.10
2019-02-27T01:04:34.977Z,72.03
2019-02-27T01:07:02.294Z,72.20
2019-02-27T01:09:31.658Z,69.17
2019-02-27T01:12:01.044Z,70.50
2019-02-27T01:14:30.445Z,71.77
2019-02-27T01:16:59.766Z,68.63
2019-02-27T01:19:29.603Z,65.93
2019-02-27T01:21:58.990Z,62.63
2019-02-27T01:24:28.462Z,65.23
2019-02-27T01:26:58.286Z,68.60
2019-02-27T01:29:27.800Z,63.00
2019-02-27T01:31:57.606Z,63.47
2019-02-27T01:34:27.604Z,63.50
2019-02-27T01:36:58.021Z,65.77
2019-02-27T01:39:27.833Z,66.70
2019-02-27T01:41:57.964Z,71.50
2019-02-27T01:44:27.968Z,65.27
2019-02-27T01:47:01.845Z,70.60
2019-02-27T01:49:28.810Z,71.40
2019-02-27T01:51:59.145Z,71.70
2019-02-27T01:54:29.272Z,79.83
2019-02-27T01:56:59.916Z,80.17
2019-02-27T01:59:29.578Z,78.93
2019-02-27T02:02:01.056Z,89.27
2019-02-27T02:04:30.130Z,85.87
2019-02-27T02:06:59.752Z,77.30
2019-02-27T02:09:34.047Z,85.83
2019-02-27T02:12:23.730Z,83.90
2019-02-27T02:15:20.601Z,81.33
2019-02-27T02:18:23.654Z,83.57
2019-02-27T02:21:32.090Z,82.60
2019-02-27T02:24:40.471Z,80.03
2019-02-27T02:27:39.155Z,85.97
2019-02-27T02:31:04.965Z,79.53
2019-02-27T02:34:05.427Z,78.50
2019-02-27T02:37:08.516Z,72.80
2019-02-27T02:40:13.780Z,81.00
2019-02-27T02:43:14.830Z,83.80
2019-02-27T02:45:52.225Z,82.60
2019-02-27T02:48:50.737Z,83.73
2019-02-27T02:51:36.594Z,80.33
2019-02-27T02:54:36.413Z,74.83
2019-02-27T02:57:37.341Z,78.83
2019-02-27T03:00:46.737Z,78.23
2019-02-27T03:03:53.199Z,75.47
2019-02-27T03:06:54.345Z,74.67
2019-02-27T03:09:42.399Z,80.83
2019-02-27T03:13:07.156Z,76.63
2019-02-27T03:16:04.232Z,75.80
2019-02-27T03:19:06.441Z,79.03
2019-02-27T03:22:03.605Z,66.63
2019-02-27T03:25:19.338Z,71.20
2019-02-27T03:28:34.115Z,68.37
2019-02-27T03:31:23.356Z,65.90
2019-02-27T03:34:14.107Z,64.07
2019-02-27T03:37:20.455Z,65.73
2019-02-27T03:40:58.259Z,61.10
2019-02-27T03:43:51.748Z,63.03
2019-02-27T03:47:26.184Z,60.20
2019-02-27T03:50:23.680Z,59.57
2019-02-27T03:53:29.641Z,57.47
2019-02-27T03:56:49.114Z,56.53
2019-02-27T04:00:05.712Z,56.83
2019-02-27T04:03:04.000Z,60.73
2019-02-27T04:05:53.669Z,58.30
2019-02-27T04:09:00.272Z,58.77
2019-02-27T04:11:30.052Z,60.37
2019-02-27T04:14:04.728Z,61.90
2019-02-27T04:16:31.938Z,61.93
2019-02-27T04:19:04.493Z,55.70
2019-02-27T04:21:32.313Z,55.87
2019-02-27T04:24:01.577Z,55.97
2019-02-27T04:26:30.834Z,53.63
2019-02-27T04:29:03.973Z,60.53
2019-02-27T04:31:30.987Z,60.47
2019-02-27T04:34:01.433Z,58.37
2019-02-27T04:36:31.042Z,53.77
2019-02-27T04:39:02.414Z,58.83
2019-02-27T04:41:32.179Z,57.60
2019-02-27T04:44:05.356Z,53.53
2019-02-27T04:46:32.746Z,56.30
2019-02-27T04:49:04.841Z,54.13
2019-02-27T04:51:33.323Z,55.20
2019-02-27T04:54:06.111Z,53.23
2019-02-27T04:56:33.570Z,54.70
2019-02-27T04:59:03.128Z,51.90
2019-02-27T05:01:36.400Z,53.63
2019-02-27T05:04:03.337Z,50.53
2019-02-27T05:06:32.632Z,48.97
2019-02-27T05:09:01.883Z,55.53
2019-02-27T05:11:31.252Z,51.63
2019-02-27T05:14:00.450Z,55.07
2019-02-27T05:16:29.640Z,54.03
2019-02-27T05:19:03.721Z,50.67
2019-02-27T05:21:30.050Z,58.20
2019-02-27T05:23:59.323Z,53.53
2019-02-27T05:26:28.838Z,53.57
2019-02-27T05:28:58.207Z,49.63
2019-02-27T05:31:27.526Z,53.80
2019-02-27T05:33:56.863Z,53.00
2019-02-27T05:36:26.196Z,50.30
2019-02-27T05:38:55.435Z,58.27
2019-02-27T05:41:24.629Z,51.03
2019-02-27T05:43:54.149Z,51.33
2019-02-27T05:46:23.461Z,49.10
2019-02-27T05:48:53.345Z,45.37
2019-02-27T05:51:23.185Z,47.17
2019-02-27T05:53:52.564Z,52.63
2019-02-27T05:56:25.082Z,47.00
2019-02-27T05:58:56.343Z,48.53
2019-02-27T06:01:25.449Z,51.03
2019-02-27T06:03:54.779Z,58.63
2019-02-27T06:06:24.071Z,52.90
2019-02-27T06:08:53.389Z,55.60
2019-02-27T06:11:22.706Z,56.73
2019-02-27T06:13:52.230Z,63.53
2019-02-27T06:16:21.619Z,61.60
2019-02-27T06:18:56.026Z,64.47
2019-02-27T06:21:22.837Z,62.57
2019-02-27T06:23:52.430Z,63.60
2019-02-27T06:26:21.988Z,69.63
2019-02-27T06:28:51.545Z,70.70
2019-02-27T06:31:21.090Z,66.47
2019-02-27T06:34:08.955Z,63.77
2019-02-27T06:36:41.983Z,70.40
2019-02-27T06:39:09.755Z,60.77
2019-02-27T06:41:39.919Z,68.03
2019-02-27T06:44:09.342Z,66.37
2019-02-27T06:46:38.622Z,73.00
2019-02-27T06:49:07.962Z,68.77
2019-02-27T06:51:37.286Z,62.13
2019-02-27T06:54:09.470Z,70.77
2019-02-27T06:56:38.936Z,72.07
2019-02-27T06:59:08.291Z,71.37
2019-02-27T07:01:37.663Z,70.87
2019-02-27T07:04:08.224Z,80.53
2019-02-27T07:06:37.640Z,72.50
2019-02-27T07:09:11.418Z,70.80
2019-02-27T07:11:39.052Z,67.97
2019-02-27T07:14:08.591Z,68.40
2019-02-27T07:16:38.144Z,67.97
2019-02-27T07:19:07.601Z,64.77
2019-02-27T07:21:37.199Z,64.90
2019-02-27T07:24:06.811Z,63.30
2019-02-27T07:26:36.082Z,64.37
2019-02-27T07:29:05.797Z,67.17
2019-02-27T07:31:35.383Z,64.70
2019-02-27T07:34:04.955Z,63.27
2019-02-27T07:36:35.967Z,58.97
2019-02-27T07:39:06.827Z,58.27
2019-02-27T07:41:36.218Z,59.17
2019-02-27T07:44:05.758Z,62.90
2019-02-27T07:46:35.624Z,53.97
2019-02-27T07:49:05.168Z,51.97
2019-02-27T07:51:34.565Z,57.40
2019-02-27T07:54:04.086Z,51.83
2019-02-27T07:56:33.463Z,50.50
2019-02-27T07:59:02.835Z,49.40
2019-02-27T08:01:32.274Z,50.60
2019-02-27T08:04:01.578Z,49.33
2019-02-27T08:06:31.109Z,48.33
2019-02-27T08:09:00.381Z,47.73
2019-02-27T08:11:29.746Z,48.13
2019-02-27T08:14:00.734Z,47.87
2019-02-27T08:16:30.049Z,46.40
2019-02-27T08:18:59.346Z,49.43
2019-02-27T08:21:28.872Z,44.57
2019-02-27T08:23:58.260Z,44.57
2019-02-27T08:26:27.883Z,48.97
2019-02-27T08:28:57.280Z,45.17
2019-02-27T08:31:28.254Z,47.17
2019-02-27T08:33:57.851Z,49.63
2019-02-27T08:36:27.201Z,44.57
2019-02-27T08:38:56.485Z,42.40
2019-02-27T08:41:25.815Z,40.40
2019-02-27T08:43:55.285Z,46.70
2019-02-27T08:46:24.762Z,40.47
2019-02-27T08:48:54.153Z,43.20
2019-02-27T08:51:23.698Z,41.33
2019-02-27T08:53:53.485Z,40.80
2019-02-27T08:56:22.886Z,38.53
2019-02-27T08:58:52.268Z,37.30
2019-02-27T09:01:22.395Z,31.53
2019-02-27T09:03:51.758Z,35.40
2019-02-27T09:06:21.201Z,40.23
2019-02-27T09:08:50.603Z,36.13
2019-02-27T09:11:19.988Z,37.93
2019-02-27T09:13:49.421Z,40.03
2019-02-27T09:16:18.756Z,38.00
2019-02-27T09:18:48.142Z,37.43
2019-02-27T09:21:18.784Z,38.33
2019-02-27T09:23:48.236Z,44.27
2019-02-27T09:26:17.603Z,40.47
2019-02-27T09:28:47.135Z,43.57
2019-02-27T09:31:16.620Z,46.37
2019-02-27T09:33:46.047Z,44.47
2019-02-27T09:36:15.414Z,52.23
2019-02-27T09:38:45.252Z,62.67
2019-02-27T09:41:14.957Z,65.93
2019-02-27T09:43:45.457Z,66.40
2019-02-27T09:46:19.300Z,70.90
2019-02-27T09:48:45.810Z,62.80
2019-02-27T09:51:15.090Z,60.57
2019-02-27T09:53:44.478Z,61.73
2019-02-27T09:56:13.705Z,60.10
2019-02-27T09:58:45.520Z,65.70
2019-02-27T10:01:18.160Z,62.90
2019-02-27T10:03:47.701Z,66.17
2019-02-27T10:06:16.960Z,62.63
2019-02-27T10:08:46.149Z,60.03
2019-02-27T10:11:18.770Z,59.33
2019-02-27T10:13:46.403Z,62.07
2019-02-27T10:16:16.108Z,63.87
2019-02-27T10:18:45.695Z,55.57
2019-02-27T10:21:14.918Z,63.43
2019-02-27T10:23:44.222Z,58.53
2019-02-27T10:26:16.564Z,59.77
2019-02-27T10:28:44.970Z,56.03
2019-02-27T10:31:14.305Z,56.43
2019-02-27T10:33:43.736Z,59.67
2019-02-27T10:36:13.262Z,61.60
2019-02-27T10:38:45.364Z,62.00
2019-02-27T10:41:14.609Z,58.70
2019-02-27T10:43:43.939Z,59.07
2019-02-27T10:46:13.355Z,61.63
2019-02-27T10:48:42.526Z,57.67
2019-02-27T10:51:11.840Z,56.23
2019-02-27T10:53:41.159Z,60.17
2019-02-27T10:56:10.411Z,58.10
2019-02-27T10:58:40.278Z,54.50
2019-02-27T11:01:09.542Z,56.53
2019-02-27T11:03:38.773Z,59.03
2019-02-27T11:06:08.381Z,54.00
2019-02-27T11:08:37.632Z,55.67
2019-02-27T11:11:08.668Z,47.37
2019-02-27T11:13:38.262Z,49.63
2019-02-27T11:16:07.699Z,51.07
2019-02-27T11:18:38.433Z,50.97
2019-02-27T11:21:07.639Z,49.87
2019-02-27T11:23:40.908Z,43.30
2019-02-27T11:26:08.095Z,40.47
2019-02-27T11:28:38.379Z,39.57
2019-02-27T11:31:08.473Z,34.80
2019-02-27T11:33:38.462Z,36.87
2019-02-27T11:36:07.671Z,38.60
2019-02-27T11:38:36.865Z,31.27
2019-02-27T11:41:07.151Z,33.43
2019-02-27T11:43:40.819Z,32.70
2019-02-27T11:46:09.923Z,37.80
2019-02-27T11:48:39.390Z,37.20
2019-02-27T11:51:08.738Z,36.20
2019-02-27T11:53:39.365Z,37.67
2019-02-27T11:56:08.658Z,37.13
2019-02-27T11:58:38.501Z,39.73
2019-02-27T12:01:08.370Z,37.23
2019-02-27T12:03:37.651Z,35.27
2019-02-27T12:06:07.719Z,33.93
2019-02-27T12:08:37.746Z,36.27
2019-02-27T12:11:09.649Z,35.40
2019-02-27T12:13:38.111Z,35.20
2019-02-27T12:16:07.617Z,38.87
2019-02-27T12:18:36.963Z,32.03
2019-02-27T12:21:06.385Z,33.10
2019-02-27T12:23:35.766Z,34.53
2019-02-27T12:26:05.323Z,29.67
2019-02-27T12:28:34.775Z,30.37
2019-02-27T12:31:04.291Z,38.40
2019-02-27T12:33:34.464Z,35.60
2019-02-27T12:36:03.936Z,33.60
2019-02-27T12:38:33.254Z,33.30
2019-02-27T12:41:02.532Z,40.37
2019-02-27T12:43:32.970Z,34.87
2019-02-27T12:46:02.356Z,34.63
2019-02-27T12:48:31.921Z,36.73
2019-02-27T12:51:03.676Z,41.60
2019-02-27T12:53:32.609Z,42.57
2019-02-27T12:56:01.947Z,46.53
2019-02-27T12:58:31.459Z,40.20
2019-02-27T13:01:00.830Z,40.37
2019-02-27T13:03:30.196Z,44.30
2019-02-27T13:06:00.974Z,39.83
2019-02-27T13:08:30.983Z,42.20
2019-02-27T13:11:00.343Z,46.33
2019-02-27T13:13:29.697Z,48.77
2019-02-27T13:15:59.074Z,54.10
2019-02-27T13:18:31.618Z,52.87
2019-02-27T13:20:59.515Z,54.33
2019-02-27T13:23:28.758Z,55.03
2019-02-27T13:26:00.424Z,57.07
2019-02-27T13:28:29.065Z,52.57
2019-02-27T13:30:58.416Z,55.33
2019-02-27T13:33:27.825Z,47.37
2019-02-27T13:36:00.358Z,53.10
2019-02-27T13:38:29.927Z,54.97
2019-02-27T13:40:59.194Z,57.17
2019-02-27T13:43:28.539Z,57.63
2019-02-27T13:45:57.908Z,68.97
2019-02-27T13:48:27.310Z,69.03
2019-02-27T13:50:59.113Z,78.40
2019-02-27T13:53:27.649Z,62.00
2019-02-27T13:55:56.922Z,66.57
2019-02-27T13:58:26.753Z,62.03
2019-02-27T14:00:56.047Z,64.93
2019-02-27T14:03:25.510Z,66.80
2019-02-27T14:05:54.939Z,65.17
2019-02-27T14:08:24.367Z,63.67
2019-02-27T14:10:54.047Z,69.30
2019-02-27T14:13:23.426Z,60.63
2019-02-27T14:15:52.689Z,58.60
2019-02-27T14:18:21.963Z,61.17
2019-02-27T14:20:51.185Z,62.83
2019-02-27T14:23:20.568Z,63.80
2019-02-27T14:25:49.891Z,67.20
2019-02-27T14:28:21.057Z,59.63
2019-02-27T14:30:50.336Z,54.60
2019-02-27T14:33:20.509Z,63.80
2019-02-27T14:35:49.996Z,63.03
2019-02-27T14:38:21.876Z,63.17
2019-02-27T14:40:50.354Z,62.13
2019-02-27T14:43:19.641Z,61.20
2019-02-27T14:45:50.730Z,64.97
2019-02-27T14:48:21.472Z,66.87
2019-02-27T14:50:50.870Z,62.43
2019-02-27T14:53:20.151Z,60.17
2019-02-27T14:55:49.422Z,69.60
2019-02-27T14:58:18.704Z,67.07
2019-02-27T15:00:48.053Z,60.03
2019-02-27T15:03:17.325Z,63.10
2019-02-27T15:05:47.591Z,62.27
2019-02-27T15:08:16.862Z,66.77
2019-02-27T15:10:46.149Z,59.77
2019-02-27T15:13:15.413Z,59.23
2019-02-27T15:15:44.887Z,61.10
2019-02-27T15:18:14.226Z,67.67
2019-02-27T15:20:43.485Z,60.37
2019-02-27T15:23:12.869Z,59.53
2019-02-27T15:25:43.278Z,55.43
2019-02-27T15:28:12.769Z,53.47
2019-02-27T15:30:46.461Z,60.40
2019-02-27T15:33:13.022Z,53.67
2019-02-27T15:35:42.362Z,52.33
2019-02-27T15:38:12.350Z,55.37
2019-02-27T15:40:41.747Z,62.07
2019-02-27T15:43:11.677Z,67.77
2019-02-27T15:45:47.299Z,62.60
2019-02-27T15:48:14.598Z,66.33
2019-02-27T15:50:43.849Z,61.30
2019-02-27T15:53:15.175Z,58.97
2019-02-27T15:55:44.119Z,58.67
2019-02-27T15:58:13.466Z,63.40
2019-02-27T16:00:42.768Z,60.40
2019-02-27T16:03:12.154Z,57.30
2019-02-27T16:05:41.507Z,56.50
2019-02-27T16:08:10.798Z,53.80
2019-02-27T16:10:43.662Z,53.83
2019-02-27T16:13:10.982Z,60.33
2019-02-27T16:15:40.275Z,60.87
2019-02-27T16:18:09.526Z,57.90
2019-02-27T16:20:52.417Z,57.03
2019-02-27T16:23:21.438Z,52.63
2019-02-27T16:25:54.131Z,51.83
2019-02-27T16:28:21.586Z,53.87
2019-02-27T16:30:50.898Z,51.07
2019-02-27T16:33:24.005Z,49.13
2019-02-27T16:35:51.169Z,52.80
2019-02-27T16:38:20.503Z,53.90
2019-02-27T16:40:52.617Z,51.53
2019-02-27T16:43:20.983Z,51.43
2019-02-27T16:45:50.529Z,49.63
2019-02-27T16:48:22.874Z,50.13
2019-02-27T16:50:52.247Z,49.40
2019-02-27T16:53:21.676Z,43.87
2019-02-27T16:55:51.192Z,50.07
2019-02-27T16:58:20.482Z,53.07
2019-02-27T17:00:54.401Z,51.40
2019-02-27T17:03:21.237Z,55.07
2019-02-27T17:05:50.538Z,46.30
2019-02-27T17:08:19.837Z,51.17
2019-02-27T17:10:51.673Z,55.40
2019-02-27T17:13:20.552Z,50.33
2019-02-27T17:15:49.812Z,58.20
2019-02-27T17:18:19.310Z,67.03
2019-02-27T17:20:48.683Z,68.77
2019-02-27T17:23:18.064Z,78.87
2019-02-27T17:25:47.409Z,89.33
2019-02-27T17:28:16.945Z,89.20
2019-02-27T17:30:46.435Z,103.17
2019-02-27T17:33:15.903Z,94.63
2019-02-27T17:35:45.301Z,90.97
2019-02-27T17:38:14.863Z,83.53
2019-02-27T17:40:44.391Z,81.30
2019-02-27T17:43:13.782Z,74.23
2019-02-27T17:45:44.344Z,85.03
2019-02-27T17:48:36.210Z,77.53
2019-02-27T17:51:06.606Z,77.60
2019-02-27T17:53:36.075Z,78.63
2019-02-27T17:56:05.502Z,76.10
2019-02-27T17:58:36.120Z,74.23
2019-02-27T18:01:06.808Z,75.80
2019-02-27T18:03:40.927Z,74.03
2019-02-27T18:06:07.563Z,77.30
2019-02-27T18:08:37.416Z,75.50
2019-02-27T18:11:06.941Z,84.27
2019-02-27T18:13:36.383Z,74.00
2019-02-27T18:16:05.988Z,71.50
2019-02-27T18:18:35.518Z,71.37
2019-02-27T18:21:04.828Z,66.73
2019-02-27T18:23:34.287Z,67.70
2019-02-27T18:26:03.544Z,63.70
2019-02-27T18:28:33.613Z,71.80
2019-02-27T18:31:03.342Z,70.47
2019-02-27T18:33:32.975Z,63.87
2019-02-27T18:36:04.810Z,66.90
2019-02-27T18:38:33.507Z,64.23
2019-02-27T18:41:02.848Z,75.03
2019-02-27T18:43:32.235Z,72.93
2019-02-27T18:46:01.612Z,80.37
2019-02-27T18:48:30.937Z,83.83
2019-02-27T18:51:00.423Z,78.87
2019-02-27T18:53:32.266Z,78.10
2019-02-27T18:56:02.742Z,75.27
2019-02-27T18:58:32.423Z,76.40
2019-02-27T19:01:01.897Z,76.10
2019-02-27T19:03:31.202Z,75.23
2019-02-27T19:06:00.611Z,77.80
2019-02-27T19:08:29.947Z,74.47
2019-02-27T19:10:59.377Z,80.00
2019-02-27T19:13:31.696Z,84.47
2019-02-27T19:15:59.691Z,82.10
2019-02-27T19:18:29.326Z,82.23
2019-02-27T19:20:59.336Z,84.80
2019-02-27T19:23:29.470Z,77.47
2019-02-27T19:25:58.811Z,86.00
2019-02-27T19:28:28.453Z,83.07
2019-02-27T19:30:58.002Z,85.90
2019-02-27T19:33:27.723Z,86.77
2019-02-27T19:35:57.512Z,87.83
2019-02-27T19:38:27.212Z,89.80
2019-02-27T19:41:01.281Z,90.13
2019-02-27T19:43:30.180Z,85.60
2019-02-27T19:45:59.717Z,92.07
2019-02-27T19:48:29.658Z,94.77
2019-02-27T19:50:59.237Z,95.97
2019-02-27T19:53:28.566Z,102.57
2019-02-27T19:56:00.721Z,111.17
2019-02-27T19:58:29.079Z,108.17
2019-02-27T20:00:58.301Z,114.50
2019-02-27T20:03:29.708Z,113.90
2019-02-27T20:05:58.975Z,114.00
2019-02-27T20:08:28.517Z,116.77
2019-02-27T20:10:58.013Z,118.00
2019-02-27T20:13:28.106Z,120.23
2019-02-27T20:15:58.177Z,113.03
2019-02-27T20:18:27.394Z,103.97
2019-02-27T20:20:57.105Z,105.40
2019-02-27T20:23:26.516Z,102.57
2019-02-27T20:25:56.209Z,107.97
2019-02-27T20:28:25.907Z,108.73
2019-02-27T20:30:55.537Z,102.13
2019-02-27T20:33:24.841Z,99.70
2019-02-27T20:35:55.741Z,103.30
2019-02-27T20:38:25.551Z,109.43
2019-02-27T20:40:55.414Z,113.03
2019-02-27T20:43:29.118Z,115.37
2019-02-27T20:45:55.883Z,113.17
2019-02-27T20:48:25.399Z,111.73
2019-02-27T20:50:55.517Z,113.40
2019-02-27T20:53:25.012Z,115.73
2019-02-27T20:55:54.430Z,119.17
2019-02-27T20:58:23.681Z,116.37
2019-02-27T21:00:53.470Z,113.20
2019-02-27T21:03:26.911Z,119.87
2019-02-27T21:05:54.096Z,126.37
2019-02-27T21:08:23.940Z,115.90
2019-02-27T21:10:55.253Z,116.87
2019-02-27T21:13:24.383Z,113.23
2019-02-27T21:15:53.793Z,113.90
2019-02-27T21:18:23.251Z,115.13
2019-02-27T21:20:52.844Z,105.47
2019-02-27T21:23:22.447Z,99.07
2019-02-27T21:25:52.069Z,106.80
2019-02-27T21:28:21.811Z,108.33
2019-02-27T21:30:52.338Z,105.00
2019-02-27T21:33:22.806Z,100.50
2019-02-27T21:35:52.328Z,105.13
2019-02-27T21:38:21.744Z,99.37
2019-02-27T21:40:51.134Z,98.80
2019-02-27T21:43:25.139Z,98.07
2019-02-27T21:45:54.364Z,103.47
2019-02-27T21:48:26.817Z,93.07
2019-02-27T21:50:55.121Z,94.40
2019-02-27T21:53:28.500Z,100.43
2019-02-27T21:55:55.587Z,93.07
2019-02-27T21:58:24.947Z,93.47
2019-02-27T22:00:54.277Z,96.77
2019-02-27T22:03:23.828Z,92.40
2019-02-27T22:05:53.767Z,96.27
2019-02-27T22:08:25.148Z,95.70
2019-02-27T22:10:54.826Z,93.27
2019-02-27T22:13:29.563Z,93.23
2019-02-27T22:15:56.657Z,99.43
2019-02-27T22:18:26.336Z,95.57
2019-02-27T22:20:59.419Z,94.07
2019-02-27T22:23:28.328Z,93.97
2019-02-27T22:25:57.942Z,84.63
2019-02-27T22:28:28.795Z,83.47
2019-02-27T22:30:58.355Z,88.30
2019-02-27T22:33:28.064Z,97.17
2019-02-27T22:35:57.770Z,88.30
2019-02-27T22:38:27.439Z,88.40
2019-02-27T22:40:56.916Z,82.50
2019-02-27T22:43:26.456Z,76.67
2019-02-27T22:45:55.860Z,80.20
2019-02-27T22:48:28.727Z,79.70
2019-02-27T22:50:56.567Z,78.43
2019-02-27T22:53:28.651Z,71.20
2019-02-27T22:55:59.640Z,76.63
2019-02-27T22:58:29.098Z,76.47
2019-02-27T23:01:14.963Z,69.10
2019-02-27T23:03:47.717Z,65.13
2019-02-27T23:06:17.204Z,71.80
2019-02-27T23:08:47.144Z,71.73
2019-02-27T23:11:17.095Z,70.10
2019-02-27T23:13:48.439Z,73.03
2019-02-27T23:16:19.464Z,73.43
2019-02-27T23:18:48.846Z,68.03
2019-02-27T23:21:18.227Z,68.07
2019-02-27T23:23:47.848Z,69.87
2019-02-27T23:26:19.816Z,62.63
2019-02-27T23:28:48.257Z,65.43
2019-02-27T23:31:22.437Z,66.43
2019-02-27T23:33:48.971Z,63.97
2019-02-27T23:36:18.347Z,64.30
2019-02-27T23:38:47.946Z,61.73
2019-02-27T23:41:22.805Z,65.10
2019-02-27T23:43:48.599Z,65.43
2019-02-27T23:46:18.509Z,60.43
2019-02-27T23:48:48.979Z,61.93
2019-02-27T23:51:18.319Z,62.87
2019-02-27T23:53:47.746Z,61.37
2019-02-27T23:56:20.341Z,58.33
2019-02-27T23:58:48.466Z,61.90
